Time;durP1;ratioP1;P1;durP2;ratioP2;P2;SDS_P1;SDS_P2;PMS_P1;PMS_P2;Temp;Humidity;BMP_temperature;BMP_pressure;BME280_temperature;BME280_humidity;BME280_pressure;Samples;Min_cycle;Max_cycle;Signal;HPM_P1;HPM_P2
2022/02/03 00:00:03;;;;;;;20.17;12.70;;;10.80;85.00;;;;;;5094972;28;20164;-87
2022/02/03 00:02:42;;;;;;;20.30;12.00;;;10.70;84.90;;;;;;5094721;28;20291;-89
2022/02/03 00:05:56;;;;;;;19.08;11.07;;;10.90;84.90;;;;;;5095056;28;20160;-88
2022/02/03 00:08:07;;;;;;;23.45;12.10;;;10.90;84.50;;;;;;5086945;28;20188;-88
2022/02/03 00:11:12;;;;;;;20.58;11.93;;;10.80;84.40;;;;;;5099683;28;20184;-88
2022/02/03 00:22:16;;;;;;;16.13;9.77;;;10.70;84.20;;;;;;5089436;28;20848;-88
2022/02/03 00:25:10;;;;;;;18.08;9.07;;;10.80;84.20;;;;;;5093829;28;20262;-88
2022/02/03 00:30:22;;;;;;;19.00;8.57;;;10.70;83.60;;;;;;5095608;28;20217;-87
2022/02/03 00:38:23;;;;;;;22.08;9.82;;;10.60;83.60;;;;;;5097853;28;20229;-87
2022/02/03 00:49:12;;;;;;;12.43;8.25;;;10.60;83.60;;;;;;5097371;28;20199;-87
2022/02/03 00:51:43;;;;;;;16.52;8.75;;;10.50;83.70;;;;;;5100111;28;20632;-87
2022/02/03 00:54:10;;;;;;;11.88;8.32;;;10.70;83.80;;;;;;5098960;28;20168;-87
2022/02/03 00:56:44;;;;;;;15.52;9.82;;;10.70;83.80;;;;;;5098397;28;20164;-87
2022/02/03 00:59:11;;;;;;;11.65;7.60;;;10.70;83.80;;;;;;5099377;28;20217;-89
2022/02/03 01:01:48;;;;;;;11.88;8.20;;;10.90;83.60;;;;;;5101575;28;20210;-88
2022/02/03 01:04:15;;;;;;;11.38;6.85;;;10.70;82.90;;;;;;5099258;28;20263;-88
2022/02/03 01:06:52;;;;;;;15.73;7.32;;;10.60;83.00;;;;;;5098993;28;20180;-88
2022/02/03 01:09:27;;;;;;;15.93;8.00;;;10.50;83.20;;;;;;5096302;28;20237;-87
2022/02/03 01:12:12;;;;;;;19.52;7.90;;;10.60;83.20;;;;;;5093053;28;20198;-87
2022/02/03 01:14:51;;;;;;;15.20;7.35;;;10.50;83.40;;;;;;5094623;28;20532;-88
2022/02/03 01:33:51;;;;;;;10.38;5.82;;;10.70;82.50;;;;;;5096410;28;20191;-89
2022/02/03 01:52:40;;;;;;;7.55;4.30;;;10.60;81.50;;;;;;5095087;28;20196;-89
2022/02/03 01:55:21;;;;;;;10.32;4.35;;;10.70;81.20;;;;;;5093250;28;20171;-88
2022/02/03 01:57:57;;;;;;;13.23;4.20;;;10.50;81.20;;;;;;5097149;28;20172;-90
2022/02/03 02:00:24;;;;;;;9.68;3.67;;;10.60;81.30;;;;;;5097476;28;20186;-89
2022/02/03 02:02:59;;;;;;;5.22;3.90;;;10.80;81.30;;;;;;5097220;28;20211;-88
2022/02/03 02:05:48;;;;;;;10.05;4.70;;;10.70;81.30;;;;;;5096781;28;20170;-88
2022/02/03 02:08:55;;;;;;;4.85;3.17;;;10.80;80.70;;;;;;5096854;28;20183;-88
2022/02/03 02:11:54;;;;;;;3.80;3.38;;;10.70;80.60;;;;;;5097294;28;20206;-90
2022/02/03 02:17:58;;;;;;;6.82;2.63;;;10.70;80.70;;;;;;5093786;28;20208;-88
2022/02/03 02:37:10;;;;;;;9.38;2.53;;;10.70;79.10;;;;;;5101853;28;20201;-89
2022/02/03 02:43:05;;;;;;;5.20;2.55;;;10.90;78.50;;;;;;5097012;28;20574;-88
2022/02/03 02:45:49;;;;;;;4.53;3.00;;;10.90;78.10;;;;;;5095654;28;20569;-87
2022/02/03 02:48:37;;;;;;;9.20;2.90;;;10.70;78.30;;;;;;5095987;28;20172;-87
2022/02/03 02:51:11;;;;;;;20.75;3.25;;;10.70;78.70;;;;;;5095782;28;20180;-86
2022/02/03 02:54:12;;;;;;;13.93;3.35;;;10.70;78.40;;;;;;5096807;28;20207;-87
2022/02/03 03:35:56;;;;;;;4.97;2.20;;;10.60;77.20;;;;;;5097098;28;20160;-88
2022/02/03 03:38:32;;;;;;;4.65;1.92;;;10.60;77.50;;;;;;5095486;28;20172;-88
2022/02/03 03:40:59;;;;;;;10.18;2.38;;;10.60;77.30;;;;;;5095281;28;20655;-88
2022/02/03 03:43:43;;;;;;;3.63;2.13;;;10.70;77.40;;;;;;5095417;28;20192;-88
2022/02/03 03:46:34;;;;;;;5.53;1.92;;;10.60;77.50;;;;;;5097788;28;20176;-88
2022/02/03 03:49:07;;;;;;;2.75;1.88;;;10.50;77.20;;;;;;5094259;28;20208;-88
2022/02/03 03:51:44;;;;;;;5.28;2.30;;;10.40;77.70;;;;;;5104895;28;20148;-88
2022/02/03 03:54:17;;;;;;;5.28;2.42;;;10.50;78.10;;;;;;5105439;28;20262;-88
2022/02/03 03:57:02;;;;;;;5.53;2.40;;;10.60;77.20;;;;;;5108770;28;20171;-89
2022/02/03 04:29:44;;;;;;;7.53;4.80;;;10.50;76.70;;;;;;5095736;28;20206;-88
2022/02/03 04:55:31;;;;;;;9.60;5.97;;;10.70;75.70;;;;;;5095468;28;20228;-88
2022/02/03 05:01:41;;;;;;;18.42;6.20;;;10.70;75.60;;;;;;5096256;28;20163;-89
2022/02/03 05:14:22;;;;;;;9.52;4.90;;;10.60;75.40;;;;;;5074779;28;20851;-89
2022/02/03 05:22:57;;;;;;;19.50;8.23;;;10.60;75.70;;;;;;5087979;28;20227;-89
2022/02/03 05:25:34;;;;;;;13.55;6.18;;;10.60;75.50;;;;;;5101899;28;20170;-88
2022/02/03 05:44:26;;;;;;;8.57;6.28;;;10.50;75.70;;;;;;5078895;28;20194;-88
2022/02/03 05:55:05;;;;;;;9.45;6.53;;;10.20;76.80;;;;;;5097484;28;20232;-90
2022/02/03 06:03:37;;;;;;;10.80;6.50;;;10.20;76.50;;;;;;5099705;28;20198;-89
2022/02/03 06:21:31;;;;;;;16.80;6.90;;;10.00;76.70;;;;;;5098957;28;20262;-88
2022/02/03 06:24:35;;;;;;;10.85;6.93;;;10.00;76.70;;;;;;5098647;28;20187;-89
2022/02/03 06:29:39;;;;;;;10.82;6.97;;;10.20;76.70;;;;;;5098193;28;20279;-90
2022/02/03 06:32:05;;;;;;;15.70;7.20;;;10.20;76.40;;;;;;5077504;28;20205;-89
2022/02/03 06:34:31;;;;;;;12.30;8.23;;;10.10;76.90;;;;;;5076199;28;20184;-90
2022/02/03 06:36:57;;;;;;;10.67;6.57;;;10.10;77.00;;;;;;5077446;28;20181;-90
2022/02/03 06:39:25;;;;;;;14.33;8.00;;;10.10;77.10;;;;;;5076789;28;20814;-90
2022/02/03 06:41:55;;;;;;;17.23;9.38;;;10.20;76.90;;;;;;5075861;28;20275;-89
2022/02/03 06:44:27;;;;;;;17.65;8.07;;;10.00;76.70;;;;;;5084954;28;20183;-90
2022/02/03 06:46:56;;;;;;;12.13;7.60;;;10.00;76.80;;;;;;5104020;28;20183;-90
2022/02/03 06:49:44;;;;;;;10.13;7.38;;;10.10;77.00;;;;;;5109908;28;20200;-90
2022/02/03 06:52:19;;;;;;;13.75;7.10;;;10.20;76.60;;;;;;5108481;28;20210;-90
2022/02/03 06:57:24;;;;;;;12.05;7.90;;;10.20;76.40;;;;;;5114041;28;20186;-89
2022/02/03 07:00:03;;;;;;;17.73;6.97;;;10.30;76.30;;;;;;5112707;28;20179;-90
2022/02/03 07:02:33;;;;;;;10.63;6.25;;;10.40;75.70;;;;;;5116885;28;20179;-90
2022/02/03 07:04:59;;;;;;;13.93;7.43;;;10.30;75.70;;;;;;5117470;28;20183;-90
2022/02/03 07:07:26;;;;;;;20.97;8.23;;;10.40;75.40;;;;;;5107318;28;20286;-88
2022/02/03 07:09:52;;;;;;;11.85;7.18;;;10.20;74.90;;;;;;5096580;28;20204;-88
2022/02/03 07:12:20;;;;;;;11.60;7.13;;;10.20;75.10;;;;;;5096644;28;20211;-89
2022/02/03 07:14:45;;;;;;;12.10;6.65;;;10.20;75.10;;;;;;5095479;28;20693;-88
2022/02/03 07:17:12;;;;;;;13.57;7.13;;;10.30;75.20;;;;;;5096606;28;20176;-89
2022/02/03 07:19:47;;;;;;;16.15;7.43;;;10.20;75.20;;;;;;5098422;28;20429;-89
2022/02/03 07:22:14;;;;;;;16.25;7.95;;;10.00;74.90;;;;;;5097325;28;20202;-89
2022/02/03 07:24:40;;;;;;;11.50;7.07;;;10.10;75.20;;;;;;5095665;28;20555;-89
2022/02/03 07:27:05;;;;;;;14.50;8.57;;;10.00;75.10;;;;;;5095997;28;20267;-89
2022/02/03 07:29:31;;;;;;;13.83;6.63;;;10.10;75.40;;;;;;5094527;28;20203;-88
2022/02/03 07:31:57;;;;;;;15.20;7.37;;;10.20;75.20;;;;;;5095310;28;20734;-89
2022/02/03 07:34:23;;;;;;;12.23;8.30;;;10.20;75.00;;;;;;5095666;28;20179;-89
2022/02/03 07:36:48;;;;;;;12.10;7.93;;;10.20;74.60;;;;;;5097182;28;20715;-88
2022/02/03 07:39:14;;;;;;;16.63;7.40;;;10.20;74.70;;;;;;5104434;28;20179;-88
2022/02/03 07:41:41;;;;;;;6.43;3.90;;;10.20;74.50;;;;;;5103253;28;20184;-88
2022/02/03 07:44:07;;;;;;;12.35;6.38;;;10.50;81.40;;;;;;5100065;28;20482;-89
2022/02/03 07:46:35;;;;;;;19.17;7.88;;;10.70;84.10;;;;;;5096194;28;20188;-88
2022/02/03 07:49:01;;;;;;;16.02;7.75;;;10.70;82.10;;;;;;5097852;28;20200;-88
2022/02/03 07:51:27;;;;;;;11.88;6.63;;;10.80;80.90;;;;;;5103335;28;20172;-88
2022/02/03 07:53:53;;;;;;;7.78;5.97;;;10.90;80.70;;;;;;5094670;28;20200;-88
2022/02/03 07:56:19;;;;;;;10.67;6.93;;;11.00;79.50;;;;;;5088244;28;20588;-88
2022/02/03 07:58:45;;;;;;;19.70;6.63;;;11.00;78.40;;;;;;5096911;28;20901;-89
2022/02/03 08:01:11;;;;;;;12.90;6.10;;;11.20;77.60;;;;;;5095351;28;20422;-88
2022/02/03 08:03:43;;;;;;;11.98;7.00;;;11.20;76.30;;;;;;5094141;28;20525;-89
2022/02/03 08:06:13;;;;;;;10.60;5.22;;;11.10;75.60;;;;;;5094255;28;20172;-89
2022/02/03 08:08:47;;;;;;;19.73;6.13;;;11.20;75.80;;;;;;5094824;28;20585;-89
2022/02/03 08:11:19;;;;;;;9.15;6.20;;;11.30;75.30;;;;;;5094319;28;20188;-89
2022/02/03 08:13:54;;;;;;;9.40;5.45;;;11.30;74.30;;;;;;5094904;28;20191;-88
2022/02/03 08:16:29;;;;;;;13.60;5.47;;;11.40;74.00;;;;;;5094925;28;20171;-89
2022/02/03 08:19:04;;;;;;;11.60;5.15;;;11.40;73.70;;;;;;5095264;28;20179;-89
2022/02/03 08:21:31;;;;;;;5.15;4.47;;;11.40;73.00;;;;;;5095570;28;20535;-88
2022/02/03 08:24:20;;;;;;;7.35;4.57;;;11.40;72.80;;;;;;5093980;28;20622;-89
2022/02/03 08:27:00;;;;;;;10.38;4.78;;;11.40;72.40;;;;;;5095001;28;20179;-88
2022/02/03 08:31:55;;;;;;;8.87;4.63;;;11.30;72.20;;;;;;5097241;28;20183;-88
2022/02/03 08:37:30;;;;;;;12.85;5.45;;;11.40;72.10;;;;;;5079403;28;20179;-88
2022/02/03 08:40:08;;;;;;;10.32;4.82;;;11.40;71.80;;;;;;5112411;28;20174;-88
2022/02/03 08:42:34;;;;;;;8.45;4.38;;;11.40;71.90;;;;;;5094935;28;20282;-89
2022/02/03 08:45:00;;;;;;;6.27;4.87;;;11.40;71.50;;;;;;5093813;28;20207;-89
2022/02/03 08:47:26;;;;;;;8.60;5.93;;;11.50;70.40;;;;;;5093778;28;20414;-89
2022/02/03 08:49:53;;;;;;;9.30;5.63;;;11.50;68.80;;;;;;5093620;28;20575;-89
2022/02/03 08:52:21;;;;;;;9.20;4.95;;;11.30;68.70;;;;;;5095221;28;20710;-89
2022/02/03 08:55:00;;;;;;;9.70;5.50;;;11.30;68.60;;;;;;5097650;28;20200;-89
2022/02/03 08:57:39;;;;;;;17.90;5.47;;;11.10;68.90;;;;;;5076463;28;20172;-88
2022/02/03 09:35:58;;;;;;;8.63;4.65;;;10.50;70.80;;;;;;5096103;28;20278;-89
2022/02/03 09:59:57;;;;;;;8.73;4.72;;;10.40;70.50;;;;;;5100883;28;20278;-89
2022/02/03 10:02:27;;;;;;;15.00;6.07;;;10.50;70.50;;;;;;5099643;28;20195;-90
2022/02/03 10:04:56;;;;;;;7.57;4.22;;;10.40;70.00;;;;;;5095680;28;20183;-90
2022/02/03 10:07:34;;;;;;;16.30;4.50;;;10.40;70.10;;;;;;5093223;28;20172;-90
2022/02/03 10:10:07;;;;;;;9.57;4.25;;;10.60;70.10;;;;;;5093235;28;20211;-90
2022/02/03 10:12:39;;;;;;;11.75;5.20;;;10.70;70.10;;;;;;5093215;28;20298;-89
2022/02/03 10:15:10;;;;;;;7.20;4.72;;;10.80;70.00;;;;;;5093714;28;20184;-90
2022/02/03 10:17:39;;;;;;;14.48;5.30;;;10.90;69.70;;;;;;5096299;28;20196;-90
2022/02/03 10:20:10;;;;;;;11.65;4.45;;;11.00;69.40;;;;;;5096677;28;20187;-89
2022/02/03 10:22:54;;;;;;;13.95;4.80;;;10.90;68.90;;;;;;5096963;28;20223;-90
2022/02/03 10:25:53;;;;;;;7.70;4.75;;;11.10;69.10;;;;;;5096128;28;20283;-89
2022/02/03 10:28:19;;;;;;;17.60;5.40;;;11.00;68.40;;;;;;5096381;28;20182;-90
2022/02/03 10:30:49;;;;;;;9.93;4.23;;;11.20;68.40;;;;;;5096492;28;20290;-90
2022/02/03 10:33:16;;;;;;;12.25;4.10;;;11.40;68.20;;;;;;5096593;28;20200;-90
2022/02/03 10:35:57;;;;;;;8.60;4.82;;;11.40;67.70;;;;;;5095934;28;20172;-90
2022/02/03 10:41:22;;;;;;;15.83;4.27;;;11.30;67.80;;;;;;5097471;28;20275;-90
2022/02/03 10:44:19;;;;;;;16.30;5.10;;;11.20;68.20;;;;;;5096995;28;20211;-90
2022/02/03 10:47:02;;;;;;;9.70;5.18;;;11.10;67.90;;;;;;5097513;28;20180;-89
2022/02/03 10:50:49;;;;;;;8.15;4.93;;;11.10;67.80;;;;;;5097106;28;20204;-89
2022/02/03 11:06:07;;;;;;;9.30;5.28;;;11.40;68.00;;;;;;5097829;28;20159;-89
2022/02/03 11:11:35;;;;;;;9.73;5.80;;;11.60;67.60;;;;;;5096793;28;20192;-89
2022/02/03 11:14:04;;;;;;;16.15;5.22;;;11.40;67.50;;;;;;5100955;28;20675;-89
2022/02/03 11:16:36;;;;;;;20.13;6.38;;;11.20;67.90;;;;;;5098483;28;20171;-89
2022/02/03 11:19:04;;;;;;;12.20;5.70;;;11.10;68.20;;;;;;5104980;28;20184;-88
2022/02/03 11:21:35;;;;;;;6.28;4.65;;;11.00;68.30;;;;;;5113732;28;20171;-90
2022/02/03 11:24:13;;;;;;;11.98;5.88;;;11.00;68.30;;;;;;5103463;28;20742;-89
2022/02/03 11:27:06;;;;;;;12.90;5.35;;;11.10;68.70;;;;;;5097554;28;20182;-89
2022/02/03 11:32:18;;;;;;;12.30;5.90;;;10.90;69.20;;;;;;5100909;28;20521;-89
2022/02/03 12:02:35;;;;;;;10.75;4.72;;;11.30;68.90;;;;;;5081972;28;20275;-89
2022/02/03 12:07:51;;;;;;;18.85;5.00;;;11.00;68.80;;;;;;5083283;28;20253;-89
2022/02/03 12:13:47;;;;;;;9.43;5.07;;;11.40;69.20;;;;;;5070424;28;20696;-89
2022/02/03 12:16:27;;;;;;;10.07;5.30;;;11.20;68.10;;;;;;5077980;28;20181;-89
2022/02/03 12:21:48;;;;;;;12.05;5.35;;;11.20;68.80;;;;;;5097123;28;20186;-89
2022/02/03 12:24:23;;;;;;;11.60;5.97;;;11.20;68.80;;;;;;5114979;28;20163;-89
2022/02/03 12:29:24;;;;;;;12.10;6.07;;;11.40;67.80;;;;;;5118196;28;20202;-89
2022/02/03 12:32:16;;;;;;;11.13;6.22;;;11.30;68.40;;;;;;5104713;28;20162;-89
2022/02/03 12:40:24;;;;;;;10.43;6.50;;;11.20;68.80;;;;;;5100877;28;20269;-89
2022/02/03 12:43:13;;;;;;;12.77;5.32;;;11.10;69.50;;;;;;5099308;28;20286;-89
2022/02/03 12:45:40;;;;;;;11.35;5.97;;;10.80;70.50;;;;;;5107332;28;20176;-90
2022/02/03 12:48:07;;;;;;;13.00;6.30;;;10.80;71.70;;;;;;5104659;28;20207;-89
2022/02/03 12:50:39;;;;;;;15.43;6.15;;;10.60;73.20;;;;;;5100727;28;20663;-89
2022/02/03 12:53:06;;;;;;;13.65;6.80;;;10.50;74.60;;;;;;5092875;28;20611;-89
2022/02/03 12:55:42;;;;;;;10.93;7.32;;;10.40;75.50;;;;;;5064429;28;20178;-90
2022/02/03 12:58:17;;;;;;;12.48;5.90;;;10.40;75.60;;;;;;5095611;28;20225;-90
2022/02/03 13:00:57;;;;;;;10.20;6.15;;;10.40;76.00;;;;;;5098291;28;20177;-89
2022/02/03 13:03:29;;;;;;;16.90;5.97;;;10.60;76.00;;;;;;5094155;28;20248;-89
2022/02/03 13:06:03;;;;;;;13.38;6.30;;;10.70;76.00;;;;;;5094064;28;20540;-89
2022/02/03 13:08:32;;;;;;;18.30;6.45;;;10.60;76.00;;;;;;5093973;28;20214;-89
2022/02/03 13:11:21;;;;;;;12.63;6.75;;;10.50;76.70;;;;;;5093998;28;20239;-89
2022/02/03 13:16:21;;;;;;;12.50;7.15;;;10.60;77.30;;;;;;5096064;28;20209;-89
2022/02/03 13:19:19;;;;;;;12.85;7.03;;;10.60;77.60;;;;;;5094947;28;20267;-89
2022/02/03 13:26:45;;;;;;;16.00;7.38;;;10.60;78.30;;;;;;5096358;28;20179;-89
2022/02/03 13:29:17;;;;;;;13.80;7.37;;;10.70;78.10;;;;;;5094947;28;20195;-89
2022/02/03 13:31:52;;;;;;;10.07;6.75;;;10.70;77.60;;;;;;5094544;28;20799;-89
2022/02/03 13:34:42;;;;;;;9.73;6.70;;;10.70;77.60;;;;;;5093909;28;20232;-89
2022/02/03 13:37:45;;;;;;;12.98;8.13;;;10.60;77.30;;;;;;5094600;28;20204;-89
2022/02/03 13:40:09;;;;;;;17.60;7.30;;;10.50;77.50;;;;;;5094756;28;20180;-90
2022/02/03 13:42:37;;;;;;;11.10;7.85;;;10.60;77.70;;;;;;5094361;28;20202;-89
2022/02/03 13:45:09;;;;;;;17.63;7.88;;;10.50;77.80;;;;;;5099372;28;20183;-90
2022/02/03 13:47:36;;;;;;;14.82;8.15;;;10.60;77.70;;;;;;5099094;28;20568;-89
2022/02/03 13:50:26;;;;;;;12.63;7.45;;;10.70;77.40;;;;;;5099475;28;20227;-89
2022/02/03 13:53:00;;;;;;;12.95;7.60;;;10.70;77.30;;;;;;5098992;28;20672;-89
2022/02/03 14:14:41;;;;;;;13.27;7.57;;;11.00;76.20;;;;;;5119498;28;20243;-89
2022/02/03 14:22:39;;;;;;;16.00;7.85;;;11.00;76.80;;;;;;5106982;28;20210;-89
2022/02/03 14:27:51;;;;;;;15.55;7.55;;;10.90;76.90;;;;;;5088034;28;20167;-89
2022/02/03 14:30:18;;;;;;;18.35;8.95;;;10.70;77.50;;;;;;5095782;28;20619;-89
2022/02/03 14:32:45;;;;;;;17.98;8.75;;;10.80;77.50;;;;;;5099404;28;20286;-89
2022/02/03 14:35:11;;;;;;;12.48;7.55;;;10.90;77.70;;;;;;5100734;28;20648;-89
2022/02/03 14:42:38;;;;;;;14.65;8.18;;;10.90;77.20;;;;;;5098012;28;20214;-87
2022/02/03 14:45:07;;;;;;;19.50;8.13;;;11.00;77.20;;;;;;5097645;28;20206;-87
2022/02/03 14:47:34;;;;;;;22.40;9.63;;;11.10;77.00;;;;;;5098854;28;20316;-87
2022/02/03 14:50:03;;;;;;;16.17;8.30;;;11.10;76.70;;;;;;5105601;28;20219;-87
2022/02/03 14:52:33;;;;;;;11.90;8.48;;;10.90;76.90;;;;;;5096277;28;20199;-86
2022/02/03 15:00:28;;;;;;;14.15;8.70;;;10.90;77.40;;;;;;5098587;28;20168;-87
2022/02/03 15:02:55;;;;;;;13.98;9.20;;;10.70;78.00;;;;;;5094552;28;20196;-86
2022/02/03 15:05:25;;;;;;;16.90;8.65;;;10.60;78.30;;;;;;5095794;28;20190;-86
2022/02/03 15:07:59;;;;;;;20.55;9.70;;;10.60;78.10;;;;;;5096363;28;20172;-86
2022/02/03 15:10:42;;;;;;;13.13;7.80;;;10.50;78.20;;;;;;5096683;28;20203;-85
2022/02/03 15:15:59;;;;;;;14.57;8.60;;;10.50;78.60;;;;;;5099498;28;20160;-86
2022/02/03 15:18:29;;;;;;;21.83;10.18;;;10.70;78.40;;;;;;5101610;28;20206;-86
2022/02/03 15:20:55;;;;;;;18.52;9.52;;;10.50;78.20;;;;;;5104346;28;20267;-86
2022/02/03 15:23:21;;;;;;;12.57;8.90;;;10.50;78.40;;;;;;5104520;28;20196;-87
2022/02/03 15:25:46;;;;;;;16.47;10.20;;;10.50;78.70;;;;;;5102804;28;20191;-85
2022/02/03 15:28:12;;;;;;;20.47;10.80;;;10.50;78.70;;;;;;5100850;28;20615;-86
2022/02/03 15:30:39;;;;;;;21.70;11.83;;;10.50;78.80;;;;;;5101538;28;20457;-85
2022/02/03 15:33:05;;;;;;;18.73;10.55;;;10.40;78.70;;;;;;5099972;28;20445;-86
2022/02/03 15:37:57;;;;;;;16.97;9.97;;;10.40;79.30;;;;;;5099186;28;20164;-86
2022/02/03 15:40:26;;;;;;;19.33;11.10;;;10.40;79.50;;;;;;5096809;28;20171;-86
2022/02/03 15:43:05;;;;;;;18.65;10.30;;;10.40;79.40;;;;;;5101858;28;20223;-86
2022/02/03 15:45:36;;;;;;;25.05;11.27;;;10.40;79.50;;;;;;5102225;28;20171;-87
2022/02/03 15:48:13;;;;;;;23.38;12.10;;;10.40;79.60;;;;;;5100466;28;20205;-88
2022/02/03 16:13:14;;;;;;;24.63;13.53;;;10.10;81.00;;;;;;5095680;28;20203;-88
2022/02/03 16:18:01;;;;;;;32.00;13.93;;;9.80;82.30;;;;;;5096911;28;20182;-87
2022/02/03 16:20:43;;;;;;;23.50;13.52;;;9.90;82.40;;;;;;5095385;28;20191;-87
2022/02/03 16:52:51;;;;;;;29.70;16.80;;;10.00;84.00;;;;;;5095595;28;20191;-87
2022/02/03 16:55:21;;;;;;;41.55;17.75;;;9.90;83.90;;;;;;5094622;28;20187;-87
2022/02/03 16:57:49;;;;;;;28.63;15.75;;;9.80;84.00;;;;;;5094301;28;20176;-87
2022/02/03 17:00:16;;;;;;;35.40;16.90;;;9.90;84.40;;;;;;5094682;28;20281;-87
2022/02/03 17:02:43;;;;;;;36.00;18.25;;;9.80;84.70;;;;;;5094330;28;20198;-87
2022/02/03 17:05:09;;;;;;;30.35;16.38;;;9.90;84.80;;;;;;5094365;28;20308;-88
2022/02/03 17:07:44;;;;;;;29.33;17.17;;;9.80;84.80;;;;;;5094375;28;20210;-88
2022/02/03 17:10:10;;;;;;;32.13;16.13;;;9.90;84.90;;;;;;5094100;28;20580;-87
2022/02/03 17:12:35;;;;;;;28.30;17.73;;;9.90;84.80;;;;;;5093951;28;20223;-87
2022/02/03 17:15:02;;;;;;;32.90;15.73;;;10.00;84.40;;;;;;5096320;28;20199;-87
2022/02/03 17:17:27;;;;;;;30.30;16.27;;;10.00;84.10;;;;;;5095872;28;20409;-88
2022/02/03 17:19:54;;;;;;;34.90;16.87;;;10.10;84.00;;;;;;5095821;28;20176;-85
2022/02/03 17:22:26;;;;;;;34.95;16.73;;;10.00;83.60;;;;;;5095464;28;20689;-89
2022/02/03 17:25:03;;;;;;;27.33;16.50;;;10.00;83.50;;;;;;5098746;28;20188;-87
2022/02/03 17:28:21;;;;;;;28.02;15.55;;;9.90;83.50;;;;;;5100592;28;20186;-88
2022/02/03 17:30:21;;;;;;;31.38;16.00;;;9.90;83.80;;;;;;5095469;28;20233;-88
2022/02/03 18:06:21;;;;;;;23.63;15.20;;;10.10;83.20;;;;;;5110435;28;20172;-87
2022/02/03 18:53:36;;;;;;;32.45;17.48;;;9.80;84.70;;;;;;5102684;28;20196;-89
2022/02/03 18:58:48;;;;;;;29.20;16.88;;;9.80;84.60;;;;;;5102597;28;20176;-88
2022/02/03 19:01:37;;;;;;;38.08;17.95;;;9.70;84.70;;;;;;5102235;28;20254;-89
2022/02/03 20:05:48;;;;;;;27.48;15.75;;;10.40;82.10;;;;;;5098428;28;20683;-89
2022/02/03 20:08:21;;;;;;;32.65;16.17;;;10.30;81.90;;;;;;5096172;28;20191;-89
2022/02/03 20:10:50;;;;;;;29.77;15.95;;;10.20;81.70;;;;;;5097177;28;20271;-89
2022/02/03 20:13:16;;;;;;;24.33;15.57;;;10.20;81.80;;;;;;5097741;28;20249;-89
2022/02/03 20:15:43;;;;;;;27.35;17.23;;;10.20;81.90;;;;;;5095485;28;20640;-89
2022/02/03 20:18:11;;;;;;;31.27;16.05;;;10.10;82.20;;;;;;5095542;28;20172;-89
2022/02/03 20:20:38;;;;;;;31.52;16.27;;;10.10;82.40;;;;;;5096764;28;20190;-86
2022/02/03 20:23:08;;;;;;;27.42;16.35;;;10.10;82.40;;;;;;5096554;28;20199;-86
2022/02/03 20:25:35;;;;;;;31.42;15.75;;;10.30;82.20;;;;;;5094820;28;20554;-86
2022/02/03 20:28:02;;;;;;;32.33;17.63;;;10.30;81.90;;;;;;5095897;28;20246;-89
2022/02/03 20:30:28;;;;;;;26.63;16.15;;;10.40;81.80;;;;;;5095153;28;20578;-88
2022/02/03 20:33:02;;;;;;;24.13;16.27;;;10.20;81.50;;;;;;5094941;28;20245;-89
2022/02/03 20:35:27;;;;;;;24.92;15.57;;;10.20;81.90;;;;;;5094326;28;20258;-89
2022/02/03 20:37:53;;;;;;;26.97;15.80;;;10.30;82.20;;;;;;5095335;28;20202;-89
2022/02/03 20:40:19;;;;;;;29.05;17.20;;;10.50;82.30;;;;;;5093496;28;20515;-89
2022/02/03 20:42:45;;;;;;;31.05;15.18;;;10.20;82.00;;;;;;5094167;28;20199;-88
2022/02/03 20:45:11;;;;;;;26.50;17.27;;;10.30;82.20;;;;;;5094006;28;20187;-88
2022/02/03 20:47:37;;;;;;;30.10;16.20;;;10.30;82.00;;;;;;5095756;28;20410;-88
2022/02/03 20:50:06;;;;;;;28.08;17.38;;;10.10;82.10;;;;;;5095496;28;20622;-88
2022/02/03 20:52:32;;;;;;;28.55;17.67;;;10.00;82.40;;;;;;5094672;28;20256;-89
2022/02/03 20:54:57;;;;;;;35.50;19.67;;;10.10;82.70;;;;;;5094119;28;20168;-88
2022/02/03 20:57:25;;;;;;;27.60;17.13;;;10.00;82.80;;;;;;5076168;28;20637;-88
2022/02/03 21:02:27;;;;;;;34.30;17.70;;;9.90;83.30;;;;;;5075761;28;20563;-88
2022/02/03 21:05:05;;;;;;;30.98;19.42;;;10.00;84.10;;;;;;5076183;28;20198;-89
2022/02/03 21:07:32;;;;;;;30.35;17.02;;;9.80;83.10;;;;;;5075845;28;20191;-88
2022/02/03 21:09:59;;;;;;;32.40;18.02;;;9.90;83.40;;;;;;5076425;28;20219;-88
2022/02/03 21:12:29;;;;;;;25.85;16.65;;;9.90;83.40;;;;;;5075448;28;20232;-89
2022/02/03 21:14:54;;;;;;;30.02;17.85;;;10.00;83.40;;;;;;5074008;28;20259;-89
2022/02/03 21:17:27;;;;;;;29.97;17.20;;;9.80;83.20;;;;;;5076728;28;20588;-88
2022/02/03 21:19:53;;;;;;;30.65;17.60;;;10.00;83.40;;;;;;5078523;28;20545;-88
2022/02/03 21:22:20;;;;;;;31.53;18.53;;;10.10;83.30;;;;;;5079090;28;20295;-88
2022/02/03 21:24:47;;;;;;;30.60;17.85;;;10.20;83.10;;;;;;5081201;28;20337;-88
2022/02/03 21:27:17;;;;;;;31.48;17.58;;;10.10;82.90;;;;;;5081036;28;20180;-88
2022/02/03 21:29:47;;;;;;;32.30;18.25;;;9.90;82.90;;;;;;5082231;28;20204;-89
2022/02/03 21:32:13;;;;;;;34.92;18.02;;;9.90;82.80;;;;;;5102319;28;20196;-88
2022/02/03 21:34:39;;;;;;;35.97;18.40;;;9.90;83.00;;;;;;5099947;28;20172;-88
2022/02/03 21:37:04;;;;;;;29.20;17.07;;;10.10;83.10;;;;;;5097603;28;20184;-89
2022/02/03 21:39:30;;;;;;;31.70;18.87;;;10.40;82.70;;;;;;5104380;28;20593;-90
2022/02/03 21:41:56;;;;;;;27.87;16.77;;;10.40;82.40;;;;;;5096676;28;20187;-89
2022/02/03 21:44:22;;;;;;;33.80;17.67;;;10.50;82.30;;;;;;5101391;28;20424;-89
2022/02/03 21:46:48;;;;;;;28.90;17.20;;;10.50;81.60;;;;;;5101139;28;20207;-89
2022/02/03 21:49:15;;;;;;;27.10;17.27;;;10.50;81.30;;;;;;5100310;28;20180;-88
2022/02/03 21:51:43;;;;;;;30.02;17.50;;;10.50;80.90;;;;;;5099133;28;20448;-89
2022/02/03 21:54:11;;;;;;;31.27;16.65;;;10.40;81.00;;;;;;5102333;28;20207;-90
2022/02/03 21:56:36;;;;;;;27.23;16.15;;;10.40;81.30;;;;;;5103111;28;20250;-90
2022/02/03 21:59:07;;;;;;;28.90;16.67;;;10.60;80.90;;;;;;5102896;28;20222;-90
2022/02/03 22:01:39;;;;;;;30.20;15.93;;;10.50;80.50;;;;;;5101291;28;20428;-90
2022/02/03 22:04:05;;;;;;;26.58;16.85;;;10.40;80.70;;;;;;5106579;28;20195;-89
2022/02/03 22:06:31;;;;;;;31.63;16.17;;;10.20;81.10;;;;;;5093183;28;20175;-90
2022/02/03 22:08:57;;;;;;;25.73;15.77;;;10.30;81.40;;;;;;5094193;28;20508;-89
2022/02/03 22:11:22;;;;;;;25.67;15.60;;;10.40;81.40;;;;;;5092527;28;20191;-89
2022/02/03 22:13:48;;;;;;;24.27;16.20;;;10.40;81.30;;;;;;5095415;28;20535;-89
2022/02/03 22:16:20;;;;;;;30.60;15.60;;;10.60;81.20;;;;;;5097313;28;20209;-88
2022/02/03 22:18:46;;;;;;;30.88;18.65;;;10.60;80.80;;;;;;5097472;28;20214;-88
2022/02/03 22:21:22;;;;;;;26.77;14.43;;;10.70;80.40;;;;;;5097506;28;20194;-89
2022/02/03 22:27:00;;;;;;;30.02;16.75;;;10.60;80.10;;;;;;5100904;28;20539;-89
2022/02/03 22:43:16;;;;;;;27.95;14.05;;;10.20;81.00;;;;;;5097839;28;20195;-87
2022/02/03 22:48:33;;;;;;;26.98;16.17;;;10.20;81.30;;;;;;5054866;28;20173;-88
2022/02/03 22:51:00;;;;;;;28.13;14.23;;;10.20;81.30;;;;;;5037940;28;20205;-89
2022/02/03 22:53:33;;;;;;;33.22;14.82;;;10.30;81.40;;;;;;5064194;28;20438;-88
2022/02/03 22:56:01;;;;;;;23.55;14.25;;;10.20;81.10;;;;;;5096959;28;20164;-88
2022/02/03 23:01:05;;;;;;;23.10;15.20;;;10.10;81.40;;;;;;5097248;28;20508;-87
2022/02/03 23:03:32;;;;;;;23.67;14.25;;;10.20;81.20;;;;;;5075016;28;20204;-88
2022/02/03 23:05:58;;;;;;;24.40;14.75;;;10.10;81.40;;;;;;5075597;28;20177;-88
2022/02/03 23:11:08;;;;;;;29.55;15.77;;;10.00;81.50;;;;;;5100772;28;20195;-88
2022/02/03 23:16:40;;;;;;;31.80;15.77;;;10.00;81.80;;;;;;5103637;28;20183;-88
2022/02/03 23:22:07;;;;;;;31.30;14.75;;;10.10;81.90;;;;;;5097534;28;20163;-88
2022/02/03 23:24:33;;;;;;;25.40;14.20;;;10.10;81.60;;;;;;5094975;28;20600;-88
2022/02/03 23:27:16;;;;;;;24.20;13.30;;;10.00;81.40;;;;;;5095488;28;20172;-88
2022/02/03 23:29:43;;;;;;;26.63;15.38;;;10.00;81.60;;;;;;5095350;28;20191;-88
2022/02/03 23:32:11;;;;;;;19.52;12.75;;;9.90;81.70;;;;;;5095711;28;20676;-88
2022/02/03 23:34:39;;;;;;;24.65;13.88;;;10.10;81.40;;;;;;5096072;28;20179;-87
2022/02/03 23:37:05;;;;;;;20.58;13.50;;;10.00;81.20;;;;;;5095273;28;20550;-88
2022/02/03 23:39:57;;;;;;;23.13;13.15;;;10.10;82.00;;;;;;5095444;28;20176;-88
